Time;durP1;ratioP1;P1;durP2;ratioP2;P2;SDS_P1;SDS_P2;PMS_P1;PMS_P2;Temp;Humidity;BMP_temperature;BMP_pressure;BME280_temperature;BME280_humidity;BME280_pressure;Samples;Min_cycle;Max_cycle;Signal;HPM_P1;HPM_P2
2022/03/01 00:02:17;;;;;;;29.25;14.63;;;-4.60;99.90;;;;;;4997127;28;20056;-78
2022/03/01 00:04:44;;;;;;;29.88;14.38;;;-4.60;99.90;;;;;;4996730;28;20109;-79
2022/03/01 00:07:10;;;;;;;28.55;13.73;;;-4.60;99.90;;;;;;4996053;28;20054;-80
2022/03/01 00:09:37;;;;;;;35.40;15.73;;;-4.60;99.90;;;;;;4979785;28;20511;-80
2022/03/01 00:12:05;;;;;;;31.60;14.25;;;-4.70;99.90;;;;;;4980009;28;20133;-79
2022/03/01 00:14:31;;;;;;;28.48;14.25;;;-4.70;99.90;;;;;;4996673;28;20539;-79
2022/03/01 00:16:58;;;;;;;28.33;14.25;;;-4.70;99.90;;;;;;5012843;28;20477;-79
2022/03/01 00:19:27;;;;;;;32.05;15.23;;;-4.70;99.90;;;;;;5016473;28;20140;-80
2022/03/01 00:21:54;;;;;;;26.63;14.40;;;-4.80;99.90;;;;;;5016513;28;20054;-79
2022/03/01 00:24:21;;;;;;;26.50;13.25;;;-4.80;99.90;;;;;;4998333;28;20140;-80
2022/03/01 00:26:48;;;;;;;35.97;15.68;;;-4.80;99.90;;;;;;5014958;28;20136;-80
2022/03/01 00:29:15;;;;;;;27.98;13.80;;;-4.80;99.90;;;;;;4998947;28;20077;-79
2022/03/01 00:31:42;;;;;;;31.70;13.38;;;-4.80;99.90;;;;;;5007293;28;20136;-79
2022/03/01 00:34:09;;;;;;;27.17;13.25;;;-4.80;99.90;;;;;;5029107;28;20050;-80
2022/03/01 00:36:37;;;;;;;28.90;12.55;;;-4.80;99.90;;;;;;5003670;28;20104;-80
2022/03/01 00:39:05;;;;;;;26.65;12.90;;;-5.00;99.90;;;;;;5019137;28;20095;-80
2022/03/01 00:41:32;;;;;;;31.35;13.98;;;-4.90;99.90;;;;;;5022118;28;20049;-78
2022/03/01 00:43:59;;;;;;;25.48;13.07;;;-5.00;99.90;;;;;;5028560;28;20119;-78
2022/03/01 00:46:26;;;;;;;31.38;13.95;;;-5.00;99.90;;;;;;5027128;28;20135;-79
2022/03/01 00:48:54;;;;;;;30.30;13.48;;;-5.10;99.90;;;;;;5010574;28;20121;-79
2022/03/01 00:51:21;;;;;;;25.27;13.10;;;-5.20;99.90;;;;;;5002836;28;20133;-80
2022/03/01 00:53:48;;;;;;;28.52;13.38;;;-5.30;99.90;;;;;;5019163;28;20125;-80
2022/03/01 00:56:15;;;;;;;30.60;12.85;;;-5.30;99.90;;;;;;5001478;28;20410;-80
2022/03/01 00:58:42;;;;;;;31.08;13.63;;;-5.40;99.90;;;;;;5002352;28;20050;-80
2022/03/01 01:01:09;;;;;;;29.25;13.50;;;-5.40;99.90;;;;;;5001562;28;20096;-80
2022/03/01 01:03:37;;;;;;;31.80;13.15;;;-5.40;99.90;;;;;;5018740;28;20106;-80
2022/03/01 01:06:04;;;;;;;24.08;12.95;;;-5.60;99.90;;;;;;5018420;28;20052;-80
2022/03/01 01:08:31;;;;;;;26.92;13.32;;;-5.70;99.90;;;;;;5000864;28;20132;-79
2022/03/01 01:10:57;;;;;;;22.00;11.45;;;-5.60;99.90;;;;;;5000833;28;20161;-79
2022/03/01 01:13:24;;;;;;;25.38;12.68;;;-5.60;99.90;;;;;;5000573;28;20100;-79
2022/03/01 01:15:51;;;;;;;25.58;12.25;;;-5.70;99.90;;;;;;5017785;28;20484;-79
2022/03/01 01:18:18;;;;;;;32.00;12.82;;;-5.60;99.90;;;;;;5018224;28;20109;-79
2022/03/01 01:20:45;;;;;;;24.77;12.73;;;-5.50;99.90;;;;;;5000030;28;20082;-79
2022/03/01 01:23:12;;;;;;;28.38;12.95;;;-5.50;99.90;;;;;;5000502;28;20084;-79
2022/03/01 01:25:39;;;;;;;26.10;12.50;;;-5.50;99.90;;;;;;4999526;28;20056;-79
2022/03/01 01:28:05;;;;;;;26.10;12.05;;;-5.50;99.90;;;;;;5016998;28;20085;-79
2022/03/01 01:30:34;;;;;;;22.38;11.45;;;-5.60;99.90;;;;;;5000059;28;20106;-79
2022/03/01 01:33:02;;;;;;;26.33;12.05;;;-5.60;99.90;;;;;;5016752;28;20042;-79
2022/03/01 01:35:31;;;;;;;28.75;11.43;;;-5.70;99.90;;;;;;5016696;28;20128;-79
2022/03/01 01:37:59;;;;;;;23.42;11.77;;;-5.70;99.90;;;;;;4999001;28;20133;-79
2022/03/01 01:40:30;;;;;;;24.92;11.40;;;-5.70;99.90;;;;;;5016600;28;20462;-79
2022/03/01 01:42:58;;;;;;;26.50;11.88;;;-5.70;99.90;;;;;;4998658;28;20145;-79
2022/03/01 01:45:26;;;;;;;24.85;11.77;;;-5.60;99.90;;;;;;4998303;28;20129;-79
2022/03/01 01:47:54;;;;;;;25.52;12.13;;;-5.60;99.90;;;;;;4998231;28;20050;-79
2022/03/01 01:50:22;;;;;;;22.55;11.27;;;-5.60;99.90;;;;;;5016008;28;20056;-79
2022/03/01 01:52:50;;;;;;;24.52;12.30;;;-5.60;99.90;;;;;;4997884;28;20050;-79
2022/03/01 01:55:18;;;;;;;23.13;10.88;;;-5.60;99.90;;;;;;4998115;28;20045;-79
2022/03/01 01:57:45;;;;;;;21.40;10.52;;;-5.60;99.90;;;;;;5014248;28;20084;-79
2022/03/01 02:00:13;;;;;;;25.58;11.38;;;-5.60;99.90;;;;;;4997996;28;20088;-79
2022/03/01 02:02:41;;;;;;;21.98;10.23;;;-5.70;99.90;;;;;;5015642;28;20050;-79
2022/03/01 02:05:08;;;;;;;23.05;11.02;;;-5.60;99.90;;;;;;5015894;28;20053;-79
2022/03/01 02:07:36;;;;;;;23.38;11.32;;;-5.70;99.90;;;;;;5015362;28;20129;-79
2022/03/01 02:10:04;;;;;;;20.77;10.63;;;-5.80;99.90;;;;;;4997584;28;20046;-79
2022/03/01 02:12:31;;;;;;;19.08;9.93;;;-5.80;99.90;;;;;;5014473;28;20124;-79
2022/03/01 02:14:58;;;;;;;23.88;11.77;;;-5.90;99.90;;;;;;5015117;28;20137;-79
2022/03/01 02:17:27;;;;;;;21.98;11.02;;;-6.00;99.90;;;;;;4995537;28;20082;-79
2022/03/01 02:19:54;;;;;;;21.95;10.25;;;-6.00;99.90;;;;;;4995185;28;20051;-79
2022/03/01 02:22:21;;;;;;;25.10;11.77;;;-6.00;99.90;;;;;;4995354;28;20058;-79
2022/03/01 02:24:48;;;;;;;23.98;11.93;;;-6.00;99.90;;;;;;4995044;28;20086;-79
2022/03/01 02:27:14;;;;;;;26.23;10.82;;;-6.00;99.90;;;;;;4994944;28;20093;-79
2022/03/01 02:29:41;;;;;;;23.77;11.13;;;-6.10;99.90;;;;;;4977431;28;20078;-79
2022/03/01 02:32:09;;;;;;;22.25;10.93;;;-6.20;99.90;;;;;;4977927;28;20109;-79
2022/03/01 02:34:36;;;;;;;26.17;11.27;;;-6.20;99.90;;;;;;4977236;28;20467;-79
2022/03/01 02:37:03;;;;;;;22.30;11.00;;;-6.20;99.90;;;;;;4994531;28;20471;-79
2022/03/01 02:39:33;;;;;;;25.73;12.00;;;-6.20;99.90;;;;;;4995003;28;20072;-79
2022/03/01 02:42:00;;;;;;;23.55;11.18;;;-6.30;99.90;;;;;;4977273;28;20508;-79
2022/03/01 02:44:27;;;;;;;24.35;11.02;;;-6.30;99.90;;;;;;4977374;28;20470;-79
2022/03/01 02:46:54;;;;;;;22.88;10.20;;;-6.30;99.90;;;;;;4993263;28;20046;-79
2022/03/01 02:49:20;;;;;;;25.23;10.68;;;-6.40;99.90;;;;;;4992689;28;20105;-79
2022/03/01 02:51:47;;;;;;;20.83;11.25;;;-6.30;99.90;;;;;;4976957;28;20050;-79
2022/03/01 02:54:14;;;;;;;24.42;11.23;;;-6.30;99.90;;;;;;4976459;28;20133;-78
2022/03/01 02:56:41;;;;;;;21.45;10.38;;;-6.30;99.90;;;;;;4994351;28;20133;-79
2022/03/01 02:59:08;;;;;;;19.48;10.00;;;-6.30;99.90;;;;;;4994354;28;20058;-78
2022/03/01 03:01:35;;;;;;;21.52;10.20;;;-6.20;99.90;;;;;;4976878;28;20138;-79
2022/03/01 03:04:02;;;;;;;24.88;9.95;;;-6.30;99.90;;;;;;4993644;28;20062;-79
2022/03/01 03:06:28;;;;;;;18.45;9.07;;;-6.30;99.90;;;;;;4976361;28;20085;-78
2022/03/01 03:08:56;;;;;;;17.80;9.25;;;-6.20;99.90;;;;;;4993743;28;20073;-79
2022/03/01 03:11:23;;;;;;;19.15;9.55;;;-6.20;99.90;;;;;;4992140;28;20054;-79
2022/03/01 03:13:49;;;;;;;16.92;9.20;;;-6.20;99.90;;;;;;4993783;28;20121;-78
2022/03/01 03:16:16;;;;;;;16.25;9.13;;;-6.20;99.90;;;;;;4995282;28;20133;-79
2022/03/01 03:18:44;;;;;;;16.63;8.30;;;-6.30;99.90;;;;;;5011575;28;20124;-79
2022/03/01 03:21:11;;;;;;;17.73;8.60;;;-6.30;99.90;;;;;;5013256;28;20093;-79
2022/03/01 03:23:38;;;;;;;17.38;9.18;;;-6.40;99.90;;;;;;4996898;28;20133;-78
2022/03/01 03:26:05;;;;;;;25.25;10.30;;;-6.50;99.90;;;;;;5016578;28;20567;-78
2022/03/01 03:28:32;;;;;;;19.48;8.75;;;-6.50;99.90;;;;;;4998704;28;20060;-78
2022/03/01 03:30:59;;;;;;;19.25;9.02;;;-6.60;99.90;;;;;;4998927;28;20050;-78
2022/03/01 03:33:26;;;;;;;20.33;9.23;;;-6.60;99.90;;;;;;5016320;28;20081;-78
2022/03/01 03:35:54;;;;;;;20.45;10.00;;;-6.60;99.90;;;;;;5016706;28;20042;-78
2022/03/01 03:38:21;;;;;;;21.13;9.80;;;-6.70;99.90;;;;;;5016383;28;20045;-78
2022/03/01 03:40:50;;;;;;;23.60;11.02;;;-6.80;99.90;;;;;;5016459;28;20204;-79
2022/03/01 03:43:18;;;;;;;18.92;9.73;;;-6.80;99.90;;;;;;5016519;28;20125;-79
2022/03/01 03:45:44;;;;;;;18.15;9.23;;;-6.80;99.90;;;;;;5016701;28;20510;-78
2022/03/01 03:48:11;;;;;;;23.92;9.52;;;-6.70;99.90;;;;;;5001262;28;20054;-78
2022/03/01 03:50:38;;;;;;;20.08;9.38;;;-6.80;99.90;;;;;;5019401;28;20045;-79
2022/03/01 03:53:05;;;;;;;20.77;9.52;;;-6.80;99.90;;;;;;5001962;28;20069;-79
2022/03/01 03:55:32;;;;;;;18.90;10.30;;;-6.90;99.90;;;;;;5001337;28;20128;-78
2022/03/01 03:57:58;;;;;;;18.67;9.10;;;-6.90;99.90;;;;;;5017960;28;20121;-79
2022/03/01 04:00:25;;;;;;;15.13;8.73;;;-6.90;99.90;;;;;;5001402;28;20088;-79
2022/03/01 04:02:52;;;;;;;21.80;9.18;;;-6.90;99.90;;;;;;5019071;28;20053;-78
2022/03/01 04:05:20;;;;;;;17.30;8.68;;;-6.90;99.90;;;;;;5018005;28;20089;-79
2022/03/01 04:07:48;;;;;;;26.15;8.70;;;-7.10;99.90;;;;;;5017998;28;20050;-79
2022/03/01 04:10:16;;;;;;;23.77;11.45;;;-7.00;99.90;;;;;;5009805;28;20128;-79
2022/03/01 04:12:43;;;;;;;20.00;9.27;;;-7.00;99.90;;;;;;5018302;28;20093;-79
2022/03/01 04:15:15;;;;;;;18.38;9.55;;;-7.00;99.90;;;;;;5018307;28;20089;-79
2022/03/01 04:17:42;;;;;;;;;;;-7.10;99.90;;;;;;5001269;28;20129;-79
2022/03/01 04:20:10;;;;;;;15.77;8.57;;;-7.10;99.90;;;;;;5017539;28;19975;-79
2022/03/01 04:22:37;;;;;;;28.02;11.55;;;-7.10;99.90;;;;;;5000359;28;20046;-78
2022/03/01 04:25:06;;;;;;;27.30;10.77;;;-7.00;99.90;;;;;;5000213;28;20113;-79
2022/03/01 04:27:33;;;;;;;23.27;10.63;;;-7.00;99.90;;;;;;5017415;28;20076;-79
2022/03/01 04:30:00;;;;;;;26.05;10.30;;;-7.00;99.90;;;;;;4999712;28;20129;-79
2022/03/01 04:32:26;;;;;;;19.52;9.48;;;-7.00;99.90;;;;;;4998853;28;20120;-79
2022/03/01 04:34:53;;;;;;;22.40;9.80;;;-7.00;99.90;;;;;;5016271;28;20133;-79
2022/03/01 04:37:20;;;;;;;24.33;10.00;;;-7.10;99.90;;;;;;5016667;28;20046;-79
2022/03/01 04:39:47;;;;;;;15.10;8.85;;;-7.20;99.90;;;;;;5016701;28;20045;-79
2022/03/01 04:42:16;;;;;;;15.20;9.38;;;-7.10;99.90;;;;;;5016372;28;20581;-79
2022/03/01 04:44:43;;;;;;;19.58;9.15;;;-7.20;99.90;;;;;;5016377;28;20133;-78
2022/03/01 04:47:11;;;;;;;20.73;9.40;;;-7.20;99.90;;;;;;4998571;28;20152;-79
2022/03/01 04:49:37;;;;;;;23.13;9.90;;;-7.20;99.90;;;;;;4998397;28;20129;-79
2022/03/01 04:52:04;;;;;;;21.30;9.43;;;-7.10;99.90;;;;;;5016236;28;20128;-78
2022/03/01 04:54:31;;;;;;;18.35;8.80;;;-7.20;99.90;;;;;;5015783;28;20132;-78
2022/03/01 04:56:59;;;;;;;16.45;8.60;;;-7.20;99.90;;;;;;4998221;28;20125;-78
2022/03/01 04:59:25;;;;;;;20.52;8.50;;;-7.20;99.90;;;;;;5015843;28;20060;-79
2022/03/01 05:01:52;;;;;;;15.73;8.15;;;-7.20;99.90;;;;;;5017296;28;20137;-79
2022/03/01 05:04:19;;;;;;;28.05;9.07;;;-7.10;99.90;;;;;;5018211;28;20068;-79
2022/03/01 05:06:46;;;;;;;19.63;9.48;;;-7.00;99.90;;;;;;5017720;28;20069;-79
2022/03/01 05:09:13;;;;;;;18.23;9.07;;;-7.00;99.90;;;;;;5015859;28;20129;-79
2022/03/01 05:11:39;;;;;;;17.23;8.98;;;-7.00;99.90;;;;;;5000144;28;20105;-79
2022/03/01 05:14:07;;;;;;;18.25;8.90;;;-6.90;99.90;;;;;;5016189;28;20050;-79
2022/03/01 05:16:34;;;;;;;19.45;9.20;;;-6.90;99.90;;;;;;5015850;28;20096;-79
2022/03/01 05:19:01;;;;;;;17.15;8.48;;;-7.00;99.90;;;;;;4999360;28;20241;-79
2022/03/01 05:21:29;;;;;;;15.65;8.52;;;-6.90;99.90;;;;;;5015831;28;20054;-79
2022/03/01 05:23:56;;;;;;;20.55;8.82;;;-7.00;99.90;;;;;;5016560;28;20081;-78
2022/03/01 05:26:24;;;;;;;17.38;8.52;;;-7.10;99.90;;;;;;5016619;28;20125;-78
2022/03/01 05:28:50;;;;;;;22.63;9.30;;;-7.10;99.90;;;;;;5017655;28;20188;-79
2022/03/01 05:31:23;;;;;;;19.88;9.43;;;-7.20;99.90;;;;;;5021544;28;20069;-78
2022/03/01 05:33:50;;;;;;;22.98;9.65;;;-7.10;99.90;;;;;;5019122;28;20050;-78
2022/03/01 05:36:17;;;;;;;19.92;8.55;;;-7.20;99.90;;;;;;5000967;28;20105;-79
2022/03/01 05:38:44;;;;;;;19.83;8.73;;;-7.30;99.90;;;;;;5016307;28;20050;-79
2022/03/01 05:41:11;;;;;;;16.02;8.80;;;-7.40;99.90;;;;;;5017611;28;20502;-79
2022/03/01 05:43:41;;;;;;;21.92;8.80;;;-7.40;99.90;;;;;;5000747;28;20085;-79
2022/03/01 05:46:07;;;;;;;19.40;9.23;;;-7.50;99.90;;;;;;5000093;28;20081;-79
2022/03/01 05:48:34;;;;;;;24.77;9.05;;;-7.50;99.90;;;;;;5016760;28;20108;-79
2022/03/01 05:51:02;;;;;;;21.33;8.35;;;-7.50;99.90;;;;;;5016640;28;20085;-79
2022/03/01 05:53:29;;;;;;;22.15;8.73;;;-7.40;99.90;;;;;;5016266;28;20050;-80
2022/03/01 05:55:56;;;;;;;19.70;8.20;;;-7.30;99.90;;;;;;5016762;28;20136;-78
2022/03/01 05:58:22;;;;;;;21.50;9.05;;;-7.30;99.90;;;;;;5017130;28;20132;-78
2022/03/01 06:00:49;;;;;;;22.88;8.63;;;-7.20;99.90;;;;;;4999892;28;20475;-80
2022/03/01 06:03:16;;;;;;;24.15;8.13;;;-7.10;99.90;;;;;;5015856;28;20495;-79
2022/03/01 06:05:43;;;;;;;20.17;8.43;;;-7.20;99.90;;;;;;5015234;28;20486;-81
2022/03/01 06:08:09;;;;;;;19.92;7.95;;;-7.10;99.90;;;;;;4998555;28;20457;-79
2022/03/01 06:10:36;;;;;;;22.33;8.77;;;-7.10;99.90;;;;;;5014979;28;20141;-79
2022/03/01 06:13:04;;;;;;;19.85;9.80;;;-7.00;99.90;;;;;;5016506;28;20503;-79
2022/03/01 06:15:31;;;;;;;23.85;9.30;;;-7.00;99.90;;;;;;5018449;28;20050;-79
2022/03/01 06:17:59;;;;;;;19.63;9.18;;;-7.00;99.90;;;;;;5018085;28;20050;-79
2022/03/01 06:20:27;;;;;;;17.30;8.20;;;-7.00;99.90;;;;;;5017206;28;20096;-79
2022/03/01 06:22:54;;;;;;;19.73;9.60;;;-7.00;99.90;;;;;;5017677;28;20054;-79
2022/03/01 06:25:20;;;;;;;17.60;8.85;;;-7.20;99.90;;;;;;5016638;28;20073;-78
2022/03/01 06:27:47;;;;;;;19.52;10.80;;;-7.20;99.90;;;;;;5017397;28;20084;-78
2022/03/01 06:30:16;;;;;;;20.92;9.27;;;-7.20;99.90;;;;;;5016878;28;20049;-79
2022/03/01 06:32:42;;;;;;;23.30;9.68;;;-7.30;99.90;;;;;;4998443;28;20080;-78
2022/03/01 06:35:10;;;;;;;21.67;10.45;;;-7.20;99.90;;;;;;5014968;28;20049;-78
2022/03/01 06:37:43;;;;;;;20.80;10.48;;;-7.30;99.90;;;;;;5016779;28;20049;-79
2022/03/01 06:40:12;;;;;;;24.52;11.98;;;-7.30;99.90;;;;;;4998435;28;20419;-78
2022/03/01 06:42:39;;;;;;;39.80;18.02;;;-7.20;99.90;;;;;;4998131;28;20050;-78
2022/03/01 06:45:06;;;;;;;40.88;21.30;;;-7.20;99.90;;;;;;4998005;28;20468;-78
2022/03/01 06:47:34;;;;;;;21.42;10.07;;;-7.10;99.90;;;;;;5015549;28;20050;-78
2022/03/01 06:50:01;;;;;;;21.60;9.27;;;-7.00;99.90;;;;;;5015118;28;20476;-78
2022/03/01 06:52:29;;;;;;;17.67;9.27;;;-6.90;99.90;;;;;;5015348;28;20486;-78
2022/03/01 06:54:55;;;;;;;18.15;8.77;;;-6.80;99.90;;;;;;5018895;28;20076;-81
2022/03/01 06:57:22;;;;;;;18.25;8.73;;;-6.80;99.90;;;;;;5007021;28;20422;-81
2022/03/01 06:59:53;;;;;;;25.65;9.63;;;-6.80;99.90;;;;;;5026317;28;20141;-81
2022/03/01 07:02:20;;;;;;;19.33;9.10;;;-6.70;99.90;;;;;;5022927;28;20050;-79
2022/03/01 07:04:47;;;;;;;18.50;8.98;;;-6.60;99.90;;;;;;5021792;28;20050;-78
2022/03/01 07:07:14;;;;;;;22.65;10.70;;;-6.60;99.90;;;;;;5020183;28;20149;-79
2022/03/01 07:09:40;;;;;;;26.73;15.73;;;-6.50;99.90;;;;;;5002259;28;20046;-79
2022/03/01 07:12:07;;;;;;;27.73;13.48;;;-6.50;99.90;;;;;;5010753;28;20141;-79
2022/03/01 07:14:34;;;;;;;30.50;11.02;;;-6.50;99.90;;;;;;5000539;28;20134;-78
2022/03/01 07:17:01;;;;;;;19.23;10.13;;;-6.50;99.90;;;;;;4981980;28;20422;-78
2022/03/01 07:19:27;;;;;;;21.55;10.48;;;-6.40;99.90;;;;;;4982204;28;20054;-78
2022/03/01 07:21:54;;;;;;;24.33;12.68;;;-6.40;99.90;;;;;;5000569;28;20093;-78
2022/03/01 07:24:21;;;;;;;31.85;17.05;;;-6.40;99.90;;;;;;4999729;28;20054;-78
2022/03/01 07:26:49;;;;;;;27.35;15.57;;;-6.30;99.90;;;;;;4981897;28;20077;-78
2022/03/01 07:29:15;;;;;;;27.17;17.05;;;-6.30;99.90;;;;;;4999230;28;20101;-78
2022/03/01 07:31:42;;;;;;;21.65;12.60;;;-6.30;99.90;;;;;;4998612;28;20054;-78
2022/03/01 07:34:09;;;;;;;26.83;13.18;;;-6.10;99.90;;;;;;4983927;28;20237;-77
2022/03/01 07:36:36;;;;;;;34.83;12.15;;;-6.10;99.90;;;;;;5000389;28;20073;-78
2022/03/01 07:39:04;;;;;;;27.80;10.77;;;-6.00;99.90;;;;;;4981764;28;20054;-78
2022/03/01 07:41:30;;;;;;;19.88;11.10;;;-5.90;99.90;;;;;;4999488;28;20100;-78
2022/03/01 07:43:57;;;;;;;23.08;11.98;;;-5.80;99.90;;;;;;4999212;28;20500;-78
2022/03/01 07:46:24;;;;;;;38.30;12.65;;;-5.80;99.90;;;;;;4999061;28;20046;-78
2022/03/01 07:48:50;;;;;;;39.60;12.93;;;-5.70;99.90;;;;;;4998777;28;20089;-78
2022/03/01 07:51:17;;;;;;;84.22;32.53;;;-5.60;99.90;;;;;;5003790;28;20545;-78
2022/03/01 07:53:44;;;;;;;83.18;33.95;;;-5.30;99.90;;;;;;4984656;28;20042;-78
2022/03/01 07:56:11;;;;;;;72.90;28.65;;;-4.40;99.90;;;;;;4981095;28;20085;-79
2022/03/01 07:58:37;;;;;;;76.65;31.63;;;-3.60;99.90;;;;;;4981566;28;20086;-79
2022/03/01 08:01:04;;;;;;;72.05;27.80;;;-2.40;99.90;;;;;;4981488;28;20050;-80
2022/03/01 08:03:31;;;;;;;49.75;22.35;;;-1.60;99.90;;;;;;4981920;28;20404;-80
2022/03/01 08:05:58;;;;;;;67.38;27.63;;;-0.10;99.90;;;;;;4999256;28;20050;-80
2022/03/01 08:08:26;;;;;;;70.60;22.38;;;1.10;99.90;;;;;;4982150;28;20137;-80
2022/03/01 08:10:53;;;;;;;65.50;24.27;;;1.90;99.90;;;;;;4980993;28;20466;-81
2022/03/01 08:13:39;;;;;;;172.00;86.22;;;2.10;99.90;;;;;;5005014;28;20050;-81
2022/03/01 08:16:05;;;;;;;101.28;19.98;;;3.00;99.90;;;;;;5000248;28;20092;-81
2022/03/01 08:18:33;;;;;;;46.40;11.07;;;3.40;99.90;;;;;;4981309;28;20458;-81
2022/03/01 08:20:59;;;;;;;41.58;9.75;;;4.30;99.90;;;;;;4981366;28;20137;-81
2022/03/01 08:23:27;;;;;;;47.08;10.15;;;4.50;99.90;;;;;;4981089;28;20106;-81
2022/03/01 08:25:56;;;;;;;43.55;8.77;;;5.40;99.90;;;;;;4979492;28;20050;-82
2022/03/01 08:28:23;;;;;;;24.75;8.52;;;5.60;99.90;;;;;;4985618;28;20478;-81
2022/03/01 08:30:51;;;;;;;27.98;8.32;;;6.50;99.90;;;;;;4988965;28;20133;-82
2022/03/01 08:33:20;;;;;;;27.10;7.07;;;8.30;99.90;;;;;;4997588;28;20046;-83
2022/03/01 08:35:47;;;;;;;27.83;6.90;;;9.60;93.00;;;;;;4999962;28;20046;-83
2022/03/01 08:38:14;;;;;;;36.03;7.82;;;9.60;81.40;;;;;;4994400;28;20108;-83
2022/03/01 08:40:40;;;;;;;23.98;8.23;;;9.80;80.00;;;;;;5007763;28;20066;-82
2022/03/01 08:43:09;;;;;;;33.03;9.05;;;11.60;86.30;;;;;;5010489;28;20080;-83
2022/03/01 08:45:35;;;;;;;76.07;10.23;;;12.30;75.20;;;;;;4985705;28;20097;-84
2022/03/01 08:48:03;;;;;;;38.97;6.05;;;13.50;66.80;;;;;;4986878;28;20066;-84
2022/03/01 08:50:31;;;;;;;67.68;9.73;;;13.90;65.90;;;;;;4985988;28;20077;-83
2022/03/01 08:53:10;;;;;;;69.68;7.90;;;14.40;59.70;;;;;;4985934;28;20070;-84
2022/03/01 08:55:37;;;;;;;65.90;8.50;;;13.90;59.70;;;;;;4984188;28;20497;-84
2022/03/01 08:58:05;;;;;;;27.75;6.65;;;14.30;60.60;;;;;;5001416;28;20106;-83
2022/03/01 09:00:32;;;;;;;44.13;6.75;;;14.70;58.40;;;;;;5000381;28;20078;-83
2022/03/01 09:02:59;;;;;;;44.33;7.28;;;15.20;57.10;;;;;;5000540;28;20054;-83
2022/03/01 09:05:27;;;;;;;42.45;6.82;;;13.80;56.40;;;;;;5000294;28;20054;-83
2022/03/01 09:07:53;;;;;;;14.27;5.07;;;12.40;55.50;;;;;;5000101;28;20137;-83
2022/03/01 09:10:22;;;;;;;65.25;9.85;;;12.40;57.30;;;;;;4999777;28;20206;-84
2022/03/01 09:12:53;;;;;;;16.30;5.30;;;12.30;58.30;;;;;;4999865;28;20057;-83
2022/03/01 09:15:21;;;;;;;21.80;5.28;;;14.80;55.60;;;;;;4981488;28;20618;-82
2022/03/01 09:17:49;;;;;;;31.17;5.72;;;14.60;53.20;;;;;;4981999;28;20050;-83
2022/03/01 09:20:16;;;;;;;51.55;5.80;;;15.00;53.20;;;;;;4998555;28;20089;-84
2022/03/01 09:22:43;;;;;;;5.25;3.10;;;16.20;51.60;;;;;;4980541;28;20515;-83
2022/03/01 09:25:10;;;;;;;11.10;4.13;;;15.70;44.80;;;;;;4998597;28;20051;-83
2022/03/01 09:27:37;;;;;;;6.13;3.10;;;14.50;45.00;;;;;;4997116;28;20459;-82
2022/03/01 09:30:04;;;;;;;36.08;6.70;;;15.60;47.40;;;;;;4997095;28;20097;-83
2022/03/01 09:32:31;;;;;;;12.25;3.53;;;15.00;45.50;;;;;;4980076;28;20136;-84
2022/03/01 09:35:06;;;;;;;6.22;2.88;;;13.60;46.90;;;;;;4997902;28;20141;-84
2022/03/01 09:37:33;;;;;;;10.23;3.22;;;14.70;46.20;;;;;;4980580;28;20054;-83
2022/03/01 09:40:03;;;;;;;5.47;3.05;;;14.80;46.20;;;;;;4997327;28;20073;-82
2022/03/01 09:42:32;;;;;;;3.80;2.63;;;15.50;45.60;;;;;;4997134;28;20050;-82
2022/03/01 09:45:00;;;;;;;5.03;3.30;;;16.20;43.70;;;;;;4996675;28;20058;-83
2022/03/01 09:47:26;;;;;;;2.72;2.50;;;16.40;42.00;;;;;;4996018;28;20046;-83
2022/03/01 09:49:53;;;;;;;13.93;3.42;;;16.20;41.70;;;;;;4978943;28;20121;-82
2022/03/01 09:52:20;;;;;;;3.22;2.92;;;15.30;43.00;;;;;;4978315;28;20057;-84
2022/03/01 09:54:49;;;;;;;11.88;2.78;;;16.00;43.50;;;;;;4978653;28;20066;-83
2022/03/01 09:57:18;;;;;;;19.90;3.92;;;16.80;42.10;;;;;;4978652;28;20137;-83
2022/03/01 09:59:45;;;;;;;4.05;2.75;;;17.10;41.10;;;;;;4978019;28;20050;-83
2022/03/01 10:02:12;;;;;;;4.07;2.42;;;16.10;41.00;;;;;;4978221;28;20092;-84
2022/03/01 10:04:59;;;;;;;3.42;2.70;;;15.80;41.30;;;;;;4978157;28;20057;-84
2022/03/01 10:07:28;;;;;;;5.65;2.88;;;16.10;41.90;;;;;;4995033;28;20112;-82
2022/03/01 10:10:03;;;;;;;22.23;4.60;;;16.10;41.80;;;;;;4977555;28;20571;-83
2022/03/01 10:12:30;;;;;;;70.40;8.25;;;15.20;41.90;;;;;;4977944;28;20235;-83
2022/03/01 10:15:10;;;;;;;18.02;3.67;;;15.70;41.70;;;;;;4978464;28;20125;-82
2022/03/01 10:20:19;;;;;;;5.80;2.88;;;15.40;40.10;;;;;;5093120;28;20039;-83
2022/03/01 10:22:53;;;;;;;68.30;23.67;;;16.40;40.80;;;;;;5077569;28;20052;-83
2022/03/01 10:25:22;;;;;;;24.20;4.80;;;14.80;41.40;;;;;;5075303;28;20055;-83
2022/03/01 10:27:51;;;;;;;17.15;3.67;;;14.60;42.00;;;;;;5072173;28;20528;-82
2022/03/01 10:30:30;;;;;;;5.57;2.75;;;14.80;41.60;;;;;;5092975;28;20139;-83
2022/03/01 10:33:16;;;;;;;3.22;2.83;;;15.70;40.80;;;;;;5077572;28;20050;-83
2022/03/01 10:35:56;;;;;;;7.18;3.05;;;16.10;40.80;;;;;;5092335;28;20060;-83
2022/03/01 10:38:24;;;;;;;4.50;2.60;;;15.80;40.40;;;;;;5076908;28;20101;-83
2022/03/01 10:40:59;;;;;;;5.75;2.65;;;16.00;40.80;;;;;;5080292;28;20048;-83
2022/03/01 10:43:28;;;;;;;3.55;2.75;;;16.50;40.50;;;;;;5081222;28;20048;-83
2022/03/01 10:45:56;;;;;;;9.45;3.08;;;16.20;39.20;;;;;;5098229;28;20087;-84
2022/03/01 10:48:37;;;;;;;3.55;2.90;;;16.00;39.60;;;;;;5079920;28;20055;-83
2022/03/01 10:51:08;;;;;;;6.55;3.05;;;16.40;39.50;;;;;;5079519;28;20055;-83
2022/03/01 10:53:38;;;;;;;5.22;2.60;;;16.80;40.10;;;;;;5096766;28;20388;-83
2022/03/01 10:56:07;;;;;;;9.43;2.92;;;17.70;40.90;;;;;;5097159;28;20083;-83
2022/03/01 10:58:36;;;;;;;5.07;2.80;;;16.70;39.50;;;;;;5077797;28;20131;-83
2022/03/01 11:01:05;;;;;;;3.42;2.63;;;17.00;40.30;;;;;;5095657;28;20102;-83
2022/03/01 11:03:32;;;;;;;3.33;2.45;;;17.50;39.30;;;;;;5095477;28;20229;-83
2022/03/01 11:06:00;;;;;;;4.82;2.63;;;17.70;39.60;;;;;;5095721;28;20056;-83
2022/03/01 11:08:33;;;;;;;3.65;2.90;;;18.20;39.10;;;;;;5077138;28;20416;-83
2022/03/01 11:11:03;;;;;;;4.03;2.60;;;18.00;39.10;;;;;;5076656;28;20126;-83
2022/03/01 11:13:33;;;;;;;9.02;2.80;;;18.40;38.40;;;;;;5076352;28;20489;-83
2022/03/01 11:16:15;;;;;;;4.50;2.58;;;18.50;38.90;;;;;;5076366;28;20588;-83
2022/03/01 11:19:01;;;;;;;2.63;2.20;;;18.60;37.40;;;;;;5095005;28;20101;-83
2022/03/01 11:21:28;;;;;;;4.25;2.67;;;18.90;37.90;;;;;;5076592;28;20056;-83
2022/03/01 11:23:57;;;;;;;3.38;2.60;;;18.70;37.90;;;;;;5076362;28;20415;-83
2022/03/01 11:26:34;;;;;;;5.88;3.00;;;19.10;37.50;;;;;;5075991;28;20147;-82
2022/03/01 11:29:01;;;;;;;4.70;2.65;;;19.20;37.50;;;;;;5076104;28;20052;-83
2022/03/01 11:31:30;;;;;;;4.38;2.67;;;19.30;36.90;;;;;;5094578;28;20080;-83
2022/03/01 11:34:11;;;;;;;4.97;2.60;;;19.50;37.50;;;;;;5075978;28;20510;-83
2022/03/01 11:36:37;;;;;;;2.80;2.60;;;19.70;36.40;;;;;;5075588;28;20082;-83
2022/03/01 11:39:14;;;;;;;4.53;2.38;;;19.00;35.50;;;;;;5075941;28;20539;-83
2022/03/01 11:41:50;;;;;;;2.83;2.30;;;18.30;36.30;;;;;;5075729;28;20134;-83
2022/03/01 11:44:20;;;;;;;3.15;2.80;;;18.00;37.40;;;;;;5076257;28;20135;-82
2022/03/01 11:46:49;;;;;;;4.18;2.70;;;18.60;37.30;;;;;;5079227;28;20084;-83
2022/03/01 11:49:19;;;;;;;10.45;2.80;;;18.40;37.20;;;;;;5078665;28;20458;-83
2022/03/01 11:51:47;;;;;;;3.65;2.72;;;18.40;37.00;;;;;;5078024;28;20131;-82
2022/03/01 11:54:20;;;;;;;2.88;2.55;;;17.60;35.90;;;;;;5096602;28;20105;-83
2022/03/01 11:56:52;;;;;;;11.38;3.50;;;16.90;36.90;;;;;;5078394;28;20048;-83
2022/03/01 11:59:22;;;;;;;26.52;5.95;;;16.90;38.50;;;;;;5096420;28;20621;-82
2022/03/01 12:02:10;;;;;;;10.30;4.38;;;16.40;38.90;;;;;;5080993;28;20052;-83
2022/03/01 12:04:48;;;;;;;6.10;3.00;;;17.10;39.30;;;;;;5096238;28;20459;-83
2022/03/01 12:07:18;;;;;;;3.20;2.47;;;17.00;36.80;;;;;;5096262;28;20044;-83
2022/03/01 12:09:59;;;;;;;3.47;2.70;;;17.20;38.20;;;;;;5081870;28;20135;-84
2022/03/01 12:12:36;;;;;;;11.35;3.83;;;17.70;36.70;;;;;;5084735;28;20440;-84
2022/03/01 12:15:06;;;;;;;8.38;3.35;;;16.90;35.60;;;;;;5102817;28;20072;-84
2022/03/01 12:17:42;;;;;;;4.97;3.08;;;16.60;36.50;;;;;;5084382;28;20048;-81
2022/03/01 12:20:11;;;;;;;4.45;2.75;;;17.50;38.00;;;;;;5102119;28;20104;-81
2022/03/01 12:22:51;;;;;;;4.35;2.40;;;17.90;37.00;;;;;;5083613;28;20051;-83
2022/03/01 12:25:18;;;;;;;5.88;3.00;;;17.80;36.70;;;;;;5101576;28;20093;-83
2022/03/01 12:27:47;;;;;;;6.13;3.45;;;16.90;37.80;;;;;;5083113;28;20480;-83
2022/03/01 12:30:19;;;;;;;5.80;3.08;;;17.50;40.60;;;;;;5083302;28;20486;-81
2022/03/01 12:32:50;;;;;;;13.05;3.47;;;18.50;38.60;;;;;;5082519;28;20086;-81
2022/03/01 12:35:17;;;;;;;4.28;2.45;;;18.50;38.90;;;;;;5101598;28;20044;-81
2022/03/01 12:37:44;;;;;;;4.78;2.70;;;18.30;37.30;;;;;;5101047;28;20083;-83
2022/03/01 12:40:12;;;;;;;4.25;3.05;;;17.70;37.60;;;;;;5081952;28;20131;-84
2022/03/01 12:42:39;;;;;;;4.65;3.70;;;17.50;38.10;;;;;;5081728;28;20135;-84
2022/03/01 12:45:06;;;;;;;2.72;2.53;;;17.10;38.10;;;;;;5081685;28;20411;-83